createdAt,value
2022-12-03T00:01:22.385Z,100.00
2022-12-03T00:03:49.239Z,100.00
2022-12-03T00:06:17.658Z,100.00
2022-12-03T00:08:44.445Z,100.00
2022-12-03T00:11:11.560Z,100.00
2022-12-03T00:13:38.368Z,100.00
2022-12-03T00:16:05.724Z,100.00
2022-12-03T00:18:32.595Z,100.00
2022-12-03T00:20:59.665Z,100.00
2022-12-03T00:23:26.499Z,100.00
2022-12-03T00:25:53.657Z,100.00
2022-12-03T00:28:20.404Z,100.00
2022-12-03T00:30:47.539Z,100.00
2022-12-03T00:33:14.340Z,100.00
2022-12-03T00:35:41.364Z,100.00
2022-12-03T00:38:08.164Z,100.00
2022-12-03T00:40:35.251Z,100.00
2022-12-03T00:43:02.038Z,100.00
2022-12-03T00:45:29.177Z,100.00
2022-12-03T00:47:56.071Z,100.00
2022-12-03T00:50:23.262Z,100.00
2022-12-03T00:52:50.046Z,100.00
2022-12-03T00:55:17.399Z,100.00
2022-12-03T00:57:44.261Z,100.00
2022-12-03T01:00:12.527Z,100.00
2022-12-03T01:02:39.303Z,100.00
2022-12-03T01:05:07.020Z,100.00
2022-12-03T01:07:33.889Z,100.00
2022-12-03T01:10:01.035Z,100.00
2022-12-03T01:12:27.839Z,100.00
2022-12-03T01:14:55.221Z,100.00
2022-12-03T01:17:22.383Z,100.00
2022-12-03T01:19:52.417Z,100.00
2022-12-03T01:22:19.244Z,100.00
2022-12-03T01:24:46.331Z,100.00
2022-12-03T01:27:13.168Z,100.00
2022-12-03T01:29:40.289Z,100.00
2022-12-03T01:32:22.079Z,100.00
2022-12-03T01:34:51.788Z,100.00
2022-12-03T01:37:20.806Z,100.00
2022-12-03T01:39:47.780Z,100.00
2022-12-03T01:42:21.463Z,100.00
2022-12-03T01:44:51.050Z,100.00
2022-12-03T01:47:20.076Z,100.00
2022-12-03T01:49:51.295Z,100.00
2022-12-03T01:52:21.556Z,100.00
2022-12-03T01:54:55.786Z,100.00
2022-12-03T01:57:26.728Z,100.00
2022-12-03T01:59:55.808Z,100.00
2022-12-03T02:02:31.525Z,100.00
2022-12-03T02:05:00.182Z,100.00
2022-12-03T02:07:32.638Z,100.00
2022-12-03T02:10:02.199Z,100.00
2022-12-03T02:12:37.064Z,100.00
2022-12-03T02:15:07.165Z,100.00
2022-12-03T02:17:34.282Z,100.00
2022-12-03T02:20:04.397Z,100.00
2022-12-03T02:22:33.831Z,100.00
2022-12-03T02:25:18.315Z,100.00
2022-12-03T02:27:46.107Z,100.00
2022-12-03T02:30:16.480Z,100.00
2022-12-03T02:32:43.591Z,100.00
2022-12-03T02:35:16.899Z,100.00
2022-12-03T02:37:46.104Z,100.00
2022-12-03T02:43:01.251Z,100.00
2022-12-03T02:45:36.047Z,100.00
2022-12-03T02:48:13.794Z,100.00
2022-12-03T02:50:44.764Z,100.00
2022-12-03T02:53:19.307Z,100.00
2022-12-03T02:55:47.380Z,100.00
2022-12-03T02:58:15.165Z,100.00
2022-12-03T03:00:43.978Z,100.00
2022-12-03T03:03:11.333Z,100.00
2022-12-03T03:05:40.323Z,100.00
2022-12-03T03:08:08.847Z,100.00
2022-12-03T03:10:38.740Z,100.00
2022-12-03T03:13:14.222Z,100.00
2022-12-03T03:15:42.423Z,100.00
2022-12-03T03:18:11.042Z,100.00
2022-12-03T03:20:38.819Z,100.00
2022-12-03T03:23:11.767Z,100.00
2022-12-03T03:25:41.150Z,100.00
2022-12-03T03:28:08.124Z,100.00
2022-12-03T03:30:36.372Z,100.00
2022-12-03T03:33:03.256Z,100.00
2022-12-03T03:35:30.931Z,100.00
2022-12-03T03:37:58.761Z,100.00
2022-12-03T03:40:26.957Z,100.00
2022-12-03T03:42:54.675Z,100.00
2022-12-03T03:45:28.555Z,100.00
2022-12-03T03:47:58.185Z,100.00
2022-12-03T03:50:28.271Z,100.00
2022-12-03T03:52:56.369Z,100.00
2022-12-03T03:55:23.723Z,100.00
2022-12-03T03:57:50.976Z,100.00
2022-12-03T04:00:18.354Z,100.00
2022-12-03T04:02:45.672Z,100.00
2022-12-03T04:05:21.897Z,100.00
2022-12-03T04:07:48.774Z,100.00
2022-12-03T04:10:38.712Z,100.00
2022-12-03T04:13:06.296Z,100.00
2022-12-03T04:15:33.408Z,100.00
2022-12-03T04:18:18.839Z,100.00
2022-12-03T04:20:45.917Z,100.00
2022-12-03T04:23:12.681Z,100.00
2022-12-03T04:25:58.184Z,100.00
2022-12-03T04:28:43.634Z,100.00
2022-12-03T04:31:29.377Z,100.00
2022-12-03T04:34:14.621Z,100.00
2022-12-03T04:36:41.739Z,100.00
2022-12-03T04:39:08.581Z,100.00
2022-12-03T04:41:35.632Z,100.00
2022-12-03T04:44:20.733Z,100.00
2022-12-03T04:46:47.937Z,100.00
2022-12-03T04:49:15.017Z,100.00
2022-12-03T04:51:42.083Z,100.00
2022-12-03T04:54:08.989Z,100.00
2022-12-03T04:56:36.123Z,100.00
2022-12-03T04:59:03.146Z,100.00
2022-12-03T05:01:30.309Z,100.00
2022-12-03T05:03:57.179Z,100.00
2022-12-03T05:06:24.306Z,100.00
2022-12-03T05:08:51.108Z,100.00
2022-12-03T05:11:18.136Z,100.00
2022-12-03T05:13:44.895Z,100.00
2022-12-03T05:16:11.971Z,100.00
2022-12-03T05:18:38.843Z,100.00
2022-12-03T05:21:06.099Z,100.00
2022-12-03T05:23:32.870Z,100.00
2022-12-03T05:25:59.953Z,100.00
2022-12-03T05:28:26.817Z,100.00
2022-12-03T05:30:53.960Z,100.00
2022-12-03T05:33:21.104Z,100.00
2022-12-03T05:35:48.249Z,100.00
2022-12-03T05:38:15.139Z,100.00
2022-12-03T05:40:42.287Z,100.00
2022-12-03T05:43:09.076Z,100.00
2022-12-03T05:45:38.844Z,100.00
2022-12-03T05:48:07.991Z,100.00
2022-12-03T05:50:36.952Z,100.00
2022-12-03T05:53:04.219Z,100.00
2022-12-03T05:55:31.718Z,100.00
2022-12-03T05:57:58.498Z,100.00
2022-12-03T06:00:28.556Z,100.00
2022-12-03T06:02:55.962Z,100.00
2022-12-03T06:05:24.161Z,100.00
2022-12-03T06:07:52.295Z,100.00
2022-12-03T06:10:23.471Z,100.00
2022-12-03T06:12:50.785Z,100.00
2022-12-03T06:15:18.820Z,100.00
2022-12-03T06:17:45.721Z,100.00
2022-12-03T06:20:15.485Z,100.00
2022-12-03T06:22:42.892Z,100.00
2022-12-03T06:25:10.931Z,100.00
2022-12-03T06:27:37.876Z,100.00
2022-12-03T06:30:06.703Z,100.00
2022-12-03T06:32:33.543Z,100.00
2022-12-03T06:35:00.679Z,100.00
2022-12-03T06:37:27.476Z,100.00
2022-12-03T06:39:54.535Z,100.00
2022-12-03T06:42:21.313Z,100.00
2022-12-03T06:44:48.388Z,100.00
2022-12-03T06:47:15.221Z,100.00
2022-12-03T06:49:42.305Z,100.00
2022-12-03T06:52:09.085Z,100.00
2022-12-03T06:54:36.199Z,100.00
2022-12-03T06:57:03.080Z,100.00
2022-12-03T06:59:34.172Z,100.00
2022-12-03T07:02:01.305Z,100.00
2022-12-03T07:04:28.413Z,100.00
2022-12-03T07:06:55.259Z,100.00
2022-12-03T07:09:22.403Z,100.00
2022-12-03T07:11:49.205Z,100.00
2022-12-03T07:14:16.296Z,100.00
2022-12-03T07:16:43.806Z,100.00
2022-12-03T07:19:11.629Z,100.00
2022-12-03T07:21:38.500Z,100.00
2022-12-03T07:24:06.533Z,100.00
2022-12-03T07:26:33.416Z,100.00
2022-12-03T07:29:00.507Z,100.00
2022-12-03T07:31:27.419Z,100.00
2022-12-03T07:33:54.642Z,100.00
2022-12-03T07:36:21.438Z,100.00
2022-12-03T07:38:49.296Z,100.00
2022-12-03T07:41:16.260Z,100.00
2022-12-03T07:43:44.895Z,100.00
2022-12-03T07:46:11.915Z,100.00
2022-12-03T07:48:39.139Z,100.00
2022-12-03T07:51:06.243Z,100.00
2022-12-03T07:53:33.480Z,100.00
2022-12-03T07:56:00.289Z,100.00
2022-12-03T07:58:27.362Z,100.00
2022-12-03T08:00:54.205Z,100.00
2022-12-03T08:03:21.408Z,100.00
2022-12-03T08:05:48.181Z,100.00
2022-12-03T08:08:15.674Z,100.00
2022-12-03T08:10:42.509Z,100.00
2022-12-03T08:13:18.524Z,100.00
2022-12-03T08:15:45.758Z,100.00
2022-12-03T08:18:22.451Z,100.00
2022-12-03T08:20:51.918Z,100.00
2022-12-03T08:23:24.624Z,100.00
2022-12-03T08:25:52.846Z,100.00
2022-12-03T08:28:23.067Z,100.00
2022-12-03T08:30:56.059Z,100.00
2022-12-03T08:33:36.003Z,100.00
2022-12-03T08:36:22.773Z,100.00
2022-12-03T08:38:54.708Z,100.00
2022-12-03T08:41:40.692Z,100.00
2022-12-03T08:44:27.711Z,100.00
2022-12-03T08:47:10.037Z,100.00
2022-12-03T08:49:37.432Z,100.00
2022-12-03T08:52:13.493Z,100.00
2022-12-03T08:54:42.128Z,100.00
2022-12-03T08:57:41.293Z,100.00
2022-12-03T09:00:24.777Z,100.00
2022-12-03T09:02:53.812Z,100.00
2022-12-03T09:05:29.567Z,100.00
2022-12-03T09:07:56.473Z,100.00
2022-12-03T09:10:23.637Z,100.00
2022-12-03T09:12:50.469Z,100.00
2022-12-03T09:15:17.708Z,100.00
2022-12-03T09:17:44.527Z,100.00
2022-12-03T09:20:11.895Z,100.00
2022-12-03T09:22:38.721Z,100.00
2022-12-03T09:25:06.371Z,100.00
2022-12-03T09:27:33.266Z,100.00
2022-12-03T09:30:00.411Z,100.00
2022-12-03T09:32:27.352Z,100.00
2022-12-03T09:34:54.648Z,100.00
2022-12-03T09:37:22.315Z,100.00
2022-12-03T09:39:49.380Z,100.00
2022-12-03T09:42:16.766Z,100.00
2022-12-03T09:44:44.212Z,100.00
2022-12-03T09:47:11.629Z,100.00
2022-12-03T09:49:39.470Z,100.00
2022-12-03T09:52:06.498Z,100.00
2022-12-03T09:54:34.506Z,100.00
2022-12-03T09:57:04.322Z,100.00
2022-12-03T09:59:33.428Z,100.00
2022-12-03T10:02:01.579Z,100.00
2022-12-03T10:04:29.848Z,100.00
2022-12-03T10:06:58.280Z,100.00
2022-12-03T10:09:28.532Z,100.00
2022-12-03T10:11:59.507Z,100.00
2022-12-03T10:14:27.784Z,100.00
2022-12-03T10:16:55.188Z,100.00
2022-12-03T10:19:29.192Z,100.00
2022-12-03T10:21:56.045Z,100.00
2022-12-03T10:24:34.615Z,100.00
2022-12-03T10:27:20.850Z,100.00
2022-12-03T10:29:56.692Z,100.00
2022-12-03T10:32:39.723Z,100.00
2022-12-03T10:35:41.145Z,100.00
2022-12-03T10:38:17.104Z,100.00
2022-12-03T10:40:44.507Z,100.00
2022-12-03T10:43:24.650Z,100.00
2022-12-03T10:46:12.073Z,100.00
2022-12-03T10:48:39.054Z,100.00
2022-12-03T10:51:11.797Z,100.00
2022-12-03T10:53:40.620Z,100.00
2022-12-03T10:56:13.801Z,100.00
2022-12-03T10:58:41.739Z,100.00
2022-12-03T11:01:22.007Z,94.91
2022-12-03T11:03:49.811Z,89.66
2022-12-03T11:06:20.372Z,90.97
2022-12-03T11:08:56.160Z,91.65
2022-12-03T11:11:30.461Z,97.13
2022-12-03T11:14:00.145Z,96.81
2022-12-03T11:16:39.487Z,90.56
2022-12-03T11:19:20.046Z,89.44
2022-12-03T11:22:05.526Z,86.52
2022-12-03T11:24:38.133Z,86.44
2022-12-03T11:27:06.921Z,88.78
2022-12-03T11:30:00.856Z,85.76
2022-12-03T11:32:43.259Z,83.35
2022-12-03T11:35:37.462Z,84.82
2022-12-03T11:38:40.881Z,86.65
2022-12-03T11:41:14.314Z,88.70
2022-12-03T11:43:53.527Z,89.95
2022-12-03T11:46:39.734Z,86.43
2022-12-03T11:49:30.026Z,82.35
2022-12-03T11:52:00.285Z,84.61
2022-12-03T11:54:27.533Z,86.48
2022-12-03T11:56:56.512Z,85.78
2022-12-03T11:59:23.712Z,87.27
2022-12-03T12:01:50.534Z,86.48
2022-12-03T12:04:37.863Z,86.68
2022-12-03T12:07:04.842Z,85.85
2022-12-03T12:09:52.322Z,87.33
2022-12-03T12:12:27.081Z,87.07
2022-12-03T12:14:54.256Z,88.66
2022-12-03T12:17:35.244Z,90.75
2022-12-03T12:20:28.068Z,91.67
2022-12-03T12:22:55.696Z,92.28
2022-12-03T12:25:38.512Z,93.33
2022-12-03T12:28:05.371Z,94.26
2022-12-03T12:30:32.588Z,94.84
2022-12-03T12:32:59.334Z,95.29
2022-12-03T12:35:32.549Z,95.30
2022-12-03T12:38:10.946Z,95.38
2022-12-03T12:40:40.206Z,97.29
2022-12-03T12:43:23.497Z,98.85
2022-12-03T12:45:56.919Z,99.75
2022-12-03T12:48:26.865Z,100.00
2022-12-03T12:50:58.816Z,100.00
2022-12-03T12:53:27.061Z,100.00
2022-12-03T12:56:06.757Z,98.25
2022-12-03T12:58:33.801Z,96.65
2022-12-03T13:01:05.856Z,99.64
2022-12-03T13:03:36.141Z,100.00
2022-12-03T13:06:04.176Z,100.00
2022-12-03T13:08:34.081Z,100.00
2022-12-03T13:11:02.250Z,100.00
2022-12-03T13:13:31.120Z,100.00
2022-12-03T13:16:07.118Z,100.00
2022-12-03T13:18:54.623Z,100.00
2022-12-03T13:21:40.794Z,100.00
2022-12-03T13:24:28.932Z,100.00
2022-12-03T13:26:56.971Z,100.00
2022-12-03T13:29:25.985Z,100.00
2022-12-03T13:32:14.046Z,100.00
2022-12-03T13:34:41.144Z,100.00
2022-12-03T13:37:19.760Z,100.00
2022-12-03T13:39:49.119Z,100.00
2022-12-03T13:42:41.032Z,100.00
2022-12-03T13:45:13.912Z,100.00
2022-12-03T13:47:45.016Z,100.00
2022-12-03T13:50:22.297Z,100.00
2022-12-03T13:52:49.429Z,100.00
2022-12-03T13:55:29.102Z,100.00
2022-12-03T13:57:56.745Z,100.00
2022-12-03T14:00:24.451Z,100.00
2022-12-03T14:02:51.810Z,100.00
2022-12-03T14:05:19.034Z,100.00
2022-12-03T14:07:46.220Z,100.00
2022-12-03T14:10:13.585Z,100.00
2022-12-03T14:12:40.676Z,100.00
2022-12-03T14:15:09.177Z,100.00
2022-12-03T14:17:36.519Z,100.00
2022-12-03T14:20:04.366Z,100.00
2022-12-03T14:22:31.446Z,100.00
2022-12-03T14:24:58.268Z,100.00
2022-12-03T14:27:25.368Z,100.00
2022-12-03T14:29:52.883Z,100.00
2022-12-03T14:32:20.100Z,100.00
2022-12-03T14:34:46.927Z,100.00
2022-12-03T14:37:13.991Z,100.00
2022-12-03T14:39:40.901Z,100.00
2022-12-03T14:42:14.054Z,100.00
2022-12-03T14:44:42.630Z,100.00
2022-12-03T14:47:10.470Z,100.00
2022-12-03T14:49:37.874Z,100.00
2022-12-03T14:52:08.518Z,100.00
2022-12-03T14:54:39.276Z,100.00
2022-12-03T14:57:06.339Z,100.00
2022-12-03T14:59:33.119Z,100.00
2022-12-03T15:02:00.319Z,100.00
2022-12-03T15:04:27.261Z,100.00
2022-12-03T15:06:54.313Z,100.00
2022-12-03T15:09:21.273Z,100.00
2022-12-03T15:11:48.336Z,100.00
2022-12-03T15:14:15.539Z,100.00
2022-12-03T15:16:42.671Z,100.00
2022-12-03T15:19:09.692Z,100.00
2022-12-03T15:21:36.900Z,100.00
2022-12-03T15:24:04.027Z,100.00
2022-12-03T15:26:31.077Z,100.00
2022-12-03T15:28:57.921Z,100.00
2022-12-03T15:31:25.029Z,100.00
2022-12-03T15:33:51.934Z,100.00
2022-12-03T15:36:19.086Z,100.00
2022-12-03T15:38:45.973Z,100.00
2022-12-03T15:41:23.375Z,100.00
2022-12-03T15:43:53.408Z,100.00
2022-12-03T15:46:20.781Z,100.00
2022-12-03T15:48:48.184Z,100.00
2022-12-03T15:51:15.732Z,100.00
2022-12-03T15:53:42.979Z,100.00
2022-12-03T15:56:11.979Z,100.00
2022-12-03T15:58:40.001Z,100.00
2022-12-03T16:01:08.494Z,100.00
2022-12-03T16:03:35.952Z,100.00
2022-12-03T16:06:03.150Z,100.00
2022-12-03T16:08:29.943Z,100.00
2022-12-03T16:10:57.171Z,100.00
2022-12-03T16:13:24.007Z,100.00
2022-12-03T16:15:51.205Z,100.00
2022-12-03T16:18:17.993Z,100.00
2022-12-03T16:20:45.104Z,100.00
2022-12-03T16:23:11.889Z,100.00
2022-12-03T16:25:39.048Z,100.00
2022-12-03T16:28:05.857Z,100.00
2022-12-03T16:30:32.948Z,100.00
2022-12-03T16:32:59.714Z,100.00
2022-12-03T16:35:26.845Z,100.00
2022-12-03T16:37:53.613Z,100.00
2022-12-03T16:40:20.679Z,100.00
2022-12-03T16:42:47.457Z,100.00
2022-12-03T16:45:40.766Z,100.00
2022-12-03T16:48:07.590Z,100.00
2022-12-03T16:50:37.652Z,100.00
2022-12-03T16:53:04.584Z,100.00
2022-12-03T16:55:31.669Z,100.00
2022-12-03T16:57:58.431Z,100.00
2022-12-03T17:00:26.345Z,100.00
2022-12-03T17:02:53.278Z,100.00
2022-12-03T17:05:20.420Z,100.00
2022-12-03T17:07:47.265Z,100.00
2022-12-03T17:10:14.587Z,100.00
2022-12-03T17:13:08.641Z,100.00
2022-12-03T17:15:28.549Z,100.00
2022-12-03T17:17:55.499Z,100.00
2022-12-03T17:20:22.835Z,100.00
2022-12-03T17:22:49.666Z,100.00
2022-12-03T17:25:17.300Z,100.00
2022-12-03T17:27:45.522Z,100.00
2022-12-03T17:30:13.379Z,100.00
2022-12-03T17:32:40.627Z,100.00
2022-12-03T17:35:08.736Z,100.00
2022-12-03T17:37:35.652Z,100.00
2022-12-03T17:40:05.784Z,100.00
2022-12-03T17:42:32.597Z,100.00
2022-12-03T17:44:59.670Z,100.00
2022-12-03T17:47:26.373Z,100.00
2022-12-03T17:49:53.910Z,100.00
2022-12-03T17:52:20.902Z,100.00
2022-12-03T17:55:10.121Z,100.00
2022-12-03T17:57:35.270Z,100.00
2022-12-03T18:00:02.435Z,100.00
2022-12-03T18:02:29.268Z,100.00
2022-12-03T18:04:56.460Z,100.00
2022-12-03T18:07:23.258Z,100.00
2022-12-03T18:09:50.353Z,100.00
2022-12-03T18:12:17.349Z,100.00
2022-12-03T18:14:44.613Z,100.00
2022-12-03T18:17:11.957Z,100.00
2022-12-03T18:19:39.040Z,100.00
2022-12-03T18:22:06.095Z,100.00
2022-12-03T18:24:33.409Z,100.00
2022-12-03T18:27:00.275Z,100.00
2022-12-03T18:29:27.405Z,100.00
2022-12-03T18:31:55.440Z,100.00
2022-12-03T18:34:22.656Z,100.00
2022-12-03T18:36:49.930Z,100.00
2022-12-03T18:39:34.742Z,100.00
2022-12-03T18:42:01.798Z,100.00
2022-12-03T18:44:31.732Z,100.00
2022-12-03T18:46:59.527Z,100.00
2022-12-03T18:49:26.635Z,100.00
2022-12-03T18:51:58.916Z,100.00
2022-12-03T18:54:26.771Z,100.00
2022-12-03T18:56:53.549Z,100.00
2022-12-03T18:59:20.756Z,100.00
2022-12-03T19:01:47.657Z,100.00
2022-12-03T19:04:14.760Z,100.00
2022-12-03T19:06:41.642Z,100.00
2022-12-03T19:09:09.174Z,100.00
2022-12-03T19:11:36.392Z,100.00
2022-12-03T19:14:03.457Z,100.00
2022-12-03T19:16:30.639Z,100.00
2022-12-03T19:18:57.890Z,100.00
2022-12-03T19:21:27.235Z,100.00
2022-12-03T19:24:22.819Z,100.00
2022-12-03T19:26:43.310Z,100.00
2022-12-03T19:29:10.744Z,100.00
2022-12-03T19:31:37.560Z,100.00
2022-12-03T19:34:04.677Z,100.00
2022-12-03T19:36:32.259Z,100.00
2022-12-03T19:39:00.531Z,100.00
2022-12-03T19:41:30.654Z,100.00
2022-12-03T19:43:58.636Z,100.00
2022-12-03T19:46:28.767Z,100.00
2022-12-03T19:48:56.226Z,100.00
2022-12-03T19:51:34.480Z,100.00
2022-12-03T19:54:02.798Z,100.00
2022-12-03T19:56:32.455Z,100.00
2022-12-03T19:58:59.747Z,100.00
2022-12-03T20:01:29.804Z,100.00
2022-12-03T20:03:58.675Z,100.00
2022-12-03T20:06:28.810Z,100.00
2022-12-03T20:09:00.958Z,100.00
2022-12-03T20:11:31.100Z,100.00
2022-12-03T20:14:04.687Z,100.00
2022-12-03T20:16:31.997Z,100.00
2022-12-03T20:19:01.968Z,100.00
2022-12-03T20:21:30.658Z,100.00
2022-12-03T20:23:57.953Z,100.00
2022-12-03T20:26:25.569Z,100.00
2022-12-03T20:28:57.044Z,100.00
2022-12-03T20:31:26.731Z,100.00
2022-12-03T20:33:56.987Z,100.00
2022-12-03T20:36:24.460Z,100.00
2022-12-03T20:38:56.044Z,100.00
2022-12-03T20:41:23.552Z,100.00
2022-12-03T20:43:51.289Z,100.00
2022-12-03T20:46:21.718Z,100.00
2022-12-03T20:48:49.085Z,100.00
2022-12-03T20:51:18.692Z,100.00
2022-12-03T20:53:46.398Z,100.00
2022-12-03T20:56:20.263Z,100.00
2022-12-03T20:58:49.074Z,100.00
2022-12-03T21:01:24.613Z,100.00
2022-12-03T21:03:53.054Z,100.00
2022-12-03T21:06:20.613Z,100.00
2022-12-03T21:08:48.608Z,100.00
2022-12-03T21:11:18.510Z,100.00
2022-12-03T21:13:46.860Z,100.00
2022-12-03T21:16:23.085Z,100.00
2022-12-03T21:19:01.923Z,100.00
2022-12-03T21:21:30.384Z,100.00
2022-12-03T21:23:57.968Z,100.00
2022-12-03T21:26:25.036Z,100.00
2022-12-03T21:28:53.302Z,100.00
2022-12-03T21:31:25.348Z,100.00
2022-12-03T21:33:54.927Z,100.00
2022-12-03T21:36:23.270Z,100.00
2022-12-03T21:38:50.863Z,100.00
2022-12-03T21:41:18.363Z,100.00
2022-12-03T21:43:45.483Z,100.00
2022-12-03T21:47:12.342Z,100.00
2022-12-03T21:49:02.439Z,100.00
2022-12-03T21:51:29.240Z,100.00
2022-12-03T21:53:56.283Z,100.00
2022-12-03T21:56:23.134Z,100.00
2022-12-03T21:58:50.337Z,100.00
2022-12-03T22:01:22.399Z,100.00
2022-12-03T22:03:49.989Z,100.00
2022-12-03T22:06:17.533Z,100.00
2022-12-03T22:08:45.123Z,100.00
2022-12-03T22:11:15.242Z,100.00
2022-12-03T22:13:42.373Z,100.00
2022-12-03T22:16:13.062Z,100.00
2022-12-03T22:18:40.745Z,100.00
2022-12-03T22:21:10.065Z,100.00
2022-12-03T22:23:37.527Z,100.00
2022-12-03T22:26:07.851Z,100.00
2022-12-03T22:28:35.546Z,100.00
2022-12-03T22:31:06.754Z,100.00
2022-12-03T22:33:34.308Z,100.00
2022-12-03T22:36:04.063Z,100.00
2022-12-03T22:38:32.129Z,100.00
2022-12-03T22:40:59.727Z,100.00
2022-12-03T22:43:26.860Z,100.00
2022-12-03T22:45:54.970Z,100.00
2022-12-03T22:48:23.242Z,100.00
2022-12-03T22:50:51.397Z,100.00
2022-12-03T22:53:19.366Z,100.00
2022-12-03T22:55:54.630Z,100.00
2022-12-03T22:58:21.795Z,100.00
2022-12-03T23:00:48.582Z,100.00
2022-12-03T23:03:16.137Z,100.00
2022-12-03T23:05:43.137Z,100.00
2022-12-03T23:08:16.855Z,100.00
2022-12-03T23:10:46.385Z,100.00
2022-12-03T23:13:14.009Z,100.00
2022-12-03T23:15:48.841Z,100.00
2022-12-03T23:18:16.957Z,100.00
2022-12-03T23:20:55.735Z,100.00
2022-12-03T23:23:24.124Z,100.00
2022-12-03T23:25:57.930Z,100.00
2022-12-03T23:28:25.625Z,100.00
2022-12-03T23:30:52.744Z,100.00
2022-12-03T23:33:20.259Z,100.00
2022-12-03T23:35:47.138Z,100.00
2022-12-03T23:38:14.571Z,100.00
2022-12-03T23:40:47.748Z,100.00
2022-12-03T23:43:15.757Z,100.00
2022-12-03T23:45:42.592Z,100.00
2022-12-03T23:48:09.610Z,100.00
2022-12-03T23:50:39.910Z,100.00
2022-12-03T23:53:06.996Z,100.00
2022-12-03T23:55:33.867Z,100.00
2022-12-03T23:58:00.997Z,100.00
